sensor_id;sensor_type;location;lat;lon;timestamp;temperature;humidity
67027;DHT22;53933;52.142;11.738;2022-08-01T00:01:24;25.40;66.50
67027;DHT22;53933;52.142;11.738;2022-08-01T00:03:51;25.40;66.40
67027;DHT22;53933;52.142;11.738;2022-08-01T00:06:18;25.40;66.50
67027;DHT22;53933;52.142;11.738;2022-08-01T00:08:44;25.40;66.50
67027;DHT22;53933;52.142;11.738;2022-08-01T00:11:11;25.40;66.40
67027;DHT22;53933;52.142;11.738;2022-08-01T00:13:39;25.40;66.20
67027;DHT22;53933;52.142;11.738;2022-08-01T00:16:06;25.40;66.10
67027;DHT22;53933;52.142;11.738;2022-08-01T00:18:32;25.40;66.00
67027;DHT22;53933;52.142;11.738;2022-08-01T00:20:59;25.50;65.80
67027;DHT22;53933;52.142;11.738;2022-08-01T00:23:26;25.50;65.80
67027;DHT22;53933;52.142;11.738;2022-08-01T00:25:52;25.50;65.70
67027;DHT22;53933;52.142;11.738;2022-08-01T00:28:19;25.50;65.50
67027;DHT22;53933;52.142;11.738;2022-08-01T00:30:47;25.50;65.40
67027;DHT22;53933;52.142;11.738;2022-08-01T00:33:14;25.50;65.30
67027;DHT22;53933;52.142;11.738;2022-08-01T00:35:40;25.50;65.50
67027;DHT22;53933;52.142;11.738;2022-08-01T00:38:07;25.60;65.40
67027;DHT22;53933;52.142;11.738;2022-08-01T00:40:34;25.60;65.30
67027;DHT22;53933;52.142;11.738;2022-08-01T00:43:00;25.70;65.40
67027;DHT22;53933;52.142;11.738;2022-08-01T00:45:27;25.60;65.20
67027;DHT22;53933;52.142;11.738;2022-08-01T00:47:55;25.70;65.40
67027;DHT22;53933;52.142;11.738;2022-08-01T00:50:21;25.70;65.60
67027;DHT22;53933;52.142;11.738;2022-08-01T00:52:49;25.70;65.60
67027;DHT22;53933;52.142;11.738;2022-08-01T00:55:18;25.70;65.70
67027;DHT22;53933;52.142;11.738;2022-08-01T00:57:45;25.70;66.00
67027;DHT22;53933;52.142;11.738;2022-08-01T01:00:13;25.70;65.70
67027;DHT22;53933;52.142;11.738;2022-08-01T01:02:40;25.70;65.70
67027;DHT22;53933;52.142;11.738;2022-08-01T01:05:08;25.70;66.10
67027;DHT22;53933;52.142;11.738;2022-08-01T01:07:43;25.60;66.10
67027;DHT22;53933;52.142;11.738;2022-08-01T01:10:12;25.60;66.30
67027;DHT22;53933;52.142;11.738;2022-08-01T01:12:51;25.60;66.60
67027;DHT22;53933;52.142;11.738;2022-08-01T01:15:23;25.60;66.90
67027;DHT22;53933;52.142;11.738;2022-08-01T01:17:54;25.60;67.10
67027;DHT22;53933;52.142;11.738;2022-08-01T01:20:26;25.60;67.20
67027;DHT22;53933;52.142;11.738;2022-08-01T01:23:03;25.60;67.30
67027;DHT22;53933;52.142;11.738;2022-08-01T01:25:42;25.60;67.40
67027;DHT22;53933;52.142;11.738;2022-08-01T01:28:17;25.60;67.60
67027;DHT22;53933;52.142;11.738;2022-08-01T01:30:51;25.60;67.90
67027;DHT22;53933;52.142;11.738;2022-08-01T01:33:20;25.60;67.80
67027;DHT22;53933;52.142;11.738;2022-08-01T01:35:51;25.70;68.00
67027;DHT22;53933;52.142;11.738;2022-08-01T01:38:22;25.70;67.90
67027;DHT22;53933;52.142;11.738;2022-08-01T01:40:50;25.70;68.00
67027;DHT22;53933;52.142;11.738;2022-08-01T01:43:19;25.70;68.00
67027;DHT22;53933;52.142;11.738;2022-08-01T01:45:48;25.70;68.10
67027;DHT22;53933;52.142;11.738;2022-08-01T01:48:18;25.70;68.20
67027;DHT22;53933;52.142;11.738;2022-08-01T01:50:47;25.70;68.20
67027;DHT22;53933;52.142;11.738;2022-08-01T01:53:16;25.70;68.20
67027;DHT22;53933;52.142;11.738;2022-08-01T01:55:46;25.70;68.20
67027;DHT22;53933;52.142;11.738;2022-08-01T01:58:13;25.70;68.20
67027;DHT22;53933;52.142;11.738;2022-08-01T02:00:41;25.60;68.10
67027;DHT22;53933;52.142;11.738;2022-08-01T02:03:11;25.70;68.10
67027;DHT22;53933;52.142;11.738;2022-08-01T02:05:39;25.70;68.10
67027;DHT22;53933;52.142;11.738;2022-08-01T02:08:06;25.70;68.30
67027;DHT22;53933;52.142;11.738;2022-08-01T02:10:35;25.70;68.30
67027;DHT22;53933;52.142;11.738;2022-08-01T02:13:03;25.70;68.40
67027;DHT22;53933;52.142;11.738;2022-08-01T02:15:33;25.70;68.50
67027;DHT22;53933;52.142;11.738;2022-08-01T02:18:00;25.70;68.60
67027;DHT22;53933;52.142;11.738;2022-08-01T02:20:30;25.70;68.60
67027;DHT22;53933;52.142;11.738;2022-08-01T02:23:03;25.70;68.60
67027;DHT22;53933;52.142;11.738;2022-08-01T02:25:36;25.70;68.50
67027;DHT22;53933;52.142;11.738;2022-08-01T02:28:06;25.70;68.40
67027;DHT22;53933;52.142;11.738;2022-08-01T02:30:35;25.70;68.30
67027;DHT22;53933;52.142;11.738;2022-08-01T02:33:05;25.70;68.30
67027;DHT22;53933;52.142;11.738;2022-08-01T02:35:37;25.70;68.40
67027;DHT22;53933;52.142;11.738;2022-08-01T02:38:06;25.70;68.40
67027;DHT22;53933;52.142;11.738;2022-08-01T02:40:37;25.80;68.60
67027;DHT22;53933;52.142;11.738;2022-08-01T02:43:05;25.70;68.60
67027;DHT22;53933;52.142;11.738;2022-08-01T02:45:34;25.70;68.60
67027;DHT22;53933;52.142;11.738;2022-08-01T02:48:08;25.70;68.80
67027;DHT22;53933;52.142;11.738;2022-08-01T02:50:37;25.70;68.90
67027;DHT22;53933;52.142;11.738;2022-08-01T02:53:05;25.70;68.80
67027;DHT22;53933;52.142;11.738;2022-08-01T02:55:36;25.70;68.80
67027;DHT22;53933;52.142;11.738;2022-08-01T02:58:05;25.70;68.80
67027;DHT22;53933;52.142;11.738;2022-08-01T03:00:33;25.70;68.80
67027;DHT22;53933;52.142;11.738;2022-08-01T03:03:01;25.70;68.80
67027;DHT22;53933;52.142;11.738;2022-08-01T03:05:31;25.70;68.90
67027;DHT22;53933;52.142;11.738;2022-08-01T03:08:00;25.70;68.90
67027;DHT22;53933;52.142;11.738;2022-08-01T03:10:28;25.60;68.90
67027;DHT22;53933;52.142;11.738;2022-08-01T03:12:57;25.60;69.10
67027;DHT22;53933;52.142;11.738;2022-08-01T03:15:26;25.60;69.30
67027;DHT22;53933;52.142;11.738;2022-08-01T03:17:55;25.60;69.20
67027;DHT22;53933;52.142;11.738;2022-08-01T03:20:24;25.60;69.20
67027;DHT22;53933;52.142;11.738;2022-08-01T03:22:52;25.60;69.30
67027;DHT22;53933;52.142;11.738;2022-08-01T03:25:21;25.60;69.30
67027;DHT22;53933;52.142;11.738;2022-08-01T03:27:51;25.60;69.30
67027;DHT22;53933;52.142;11.738;2022-08-01T03:30:21;25.60;69.10
67027;DHT22;53933;52.142;11.738;2022-08-01T03:32:48;25.60;69.10
67027;DHT22;53933;52.142;11.738;2022-08-01T03:35:15;25.60;69.10
67027;DHT22;53933;52.142;11.738;2022-08-01T03:37:45;25.60;69.00
67027;DHT22;53933;52.142;11.738;2022-08-01T03:40:16;25.60;68.90
67027;DHT22;53933;52.142;11.738;2022-08-01T03:42:49;25.60;68.90
67027;DHT22;53933;52.142;11.738;2022-08-01T03:45:21;25.60;68.90
67027;DHT22;53933;52.142;11.738;2022-08-01T03:47:50;25.60;68.90
67027;DHT22;53933;52.142;11.738;2022-08-01T03:50:20;25.60;69.10
67027;DHT22;53933;52.142;11.738;2022-08-01T03:52:49;25.70;69.00
67027;DHT22;53933;52.142;11.738;2022-08-01T03:55:17;25.70;68.90
67027;DHT22;53933;52.142;11.738;2022-08-01T03:57:46;25.70;69.00
67027;DHT22;53933;52.142;11.738;2022-08-01T04:00:14;25.70;69.30
67027;DHT22;53933;52.142;11.738;2022-08-01T04:02:46;25.70;69.70
67027;DHT22;53933;52.142;11.738;2022-08-01T04:05:14;25.70;70.00
67027;DHT22;53933;52.142;11.738;2022-08-01T04:07:45;25.70;70.10
67027;DHT22;53933;52.142;11.738;2022-08-01T04:10:12;25.70;70.20
67027;DHT22;53933;52.142;11.738;2022-08-01T04:12:39;25.70;70.50
67027;DHT22;53933;52.142;11.738;2022-08-01T04:15:08;25.70;70.50
67027;DHT22;53933;52.142;11.738;2022-08-01T04:17:34;25.70;70.80
67027;DHT22;53933;52.142;11.738;2022-08-01T04:20:01;25.70;70.90
67027;DHT22;53933;52.142;11.738;2022-08-01T04:22:28;25.70;71.10
67027;DHT22;53933;52.142;11.738;2022-08-01T04:24:57;25.70;71.10
67027;DHT22;53933;52.142;11.738;2022-08-01T04:27:30;25.70;71.30
67027;DHT22;53933;52.142;11.738;2022-08-01T04:29:58;25.70;71.50
67027;DHT22;53933;52.142;11.738;2022-08-01T04:32:29;25.70;71.70
67027;DHT22;53933;52.142;11.738;2022-08-01T04:34:59;25.70;71.80
67027;DHT22;53933;52.142;11.738;2022-08-01T04:37:28;25.70;71.80
67027;DHT22;53933;52.142;11.738;2022-08-01T04:39:56;25.70;71.70
67027;DHT22;53933;52.142;11.738;2022-08-01T04:42:24;25.70;71.90
67027;DHT22;53933;52.142;11.738;2022-08-01T04:44:51;25.70;71.90
67027;DHT22;53933;52.142;11.738;2022-08-01T04:47:18;25.70;72.10
67027;DHT22;53933;52.142;11.738;2022-08-01T04:49:47;25.70;72.10
67027;DHT22;53933;52.142;11.738;2022-08-01T04:52:14;25.80;72.30
67027;DHT22;53933;52.142;11.738;2022-08-01T04:54:43;25.80;72.40
67027;DHT22;53933;52.142;11.738;2022-08-01T04:57:11;25.80;72.60
67027;DHT22;53933;52.142;11.738;2022-08-01T04:59:42;25.80;72.60
67027;DHT22;53933;52.142;11.738;2022-08-01T05:02:10;25.80;72.30
67027;DHT22;53933;52.142;11.738;2022-08-01T05:04:37;25.80;72.40
67027;DHT22;53933;52.142;11.738;2022-08-01T05:07:06;25.90;72.50
67027;DHT22;53933;52.142;11.738;2022-08-01T05:09:34;25.90;72.00
67027;DHT22;53933;52.142;11.738;2022-08-01T05:12:02;25.90;71.80
67027;DHT22;53933;52.142;11.738;2022-08-01T05:14:29;25.90;71.90
67027;DHT22;53933;52.142;11.738;2022-08-01T05:16:58;26.00;71.60
67027;DHT22;53933;52.142;11.738;2022-08-01T05:19:25;26.00;71.30
67027;DHT22;53933;52.142;11.738;2022-08-01T05:21:51;26.00;71.40
67027;DHT22;53933;52.142;11.738;2022-08-01T05:24:19;26.00;71.50
67027;DHT22;53933;52.142;11.738;2022-08-01T05:26:46;26.00;71.50
67027;DHT22;53933;52.142;11.738;2022-08-01T05:29:14;26.00;71.00
67027;DHT22;53933;52.142;11.738;2022-08-01T05:31:40;26.10;70.70
67027;DHT22;53933;52.142;11.738;2022-08-01T05:34:07;25.90;71.40
67027;DHT22;53933;52.142;11.738;2022-08-01T05:36:34;25.70;72.00
67027;DHT22;53933;52.142;11.738;2022-08-01T05:39:03;25.60;72.20
67027;DHT22;53933;52.142;11.738;2022-08-01T05:41:31;25.50;72.60
67027;DHT22;53933;52.142;11.738;2022-08-01T05:43:57;25.40;72.70
67027;DHT22;53933;52.142;11.738;2022-08-01T05:46:24;25.50;72.80
67027;DHT22;53933;52.142;11.738;2022-08-01T05:48:50;25.30;73.30
67027;DHT22;53933;52.142;11.738;2022-08-01T05:51:17;25.20;74.20
67027;DHT22;53933;52.142;11.738;2022-08-01T05:53:44;25.10;74.20
67027;DHT22;53933;52.142;11.738;2022-08-01T05:56:10;25.00;74.60
67027;DHT22;53933;52.142;11.738;2022-08-01T05:58:38;24.90;75.30
67027;DHT22;53933;52.142;11.738;2022-08-01T06:01:05;24.80;75.90
67027;DHT22;53933;52.142;11.738;2022-08-01T06:03:31;24.90;75.90
67027;DHT22;53933;52.142;11.738;2022-08-01T06:05:58;25.00;75.60
67027;DHT22;53933;52.142;11.738;2022-08-01T06:08:25;25.20;74.90
67027;DHT22;53933;52.142;11.738;2022-08-01T06:10:52;25.40;74.40
67027;DHT22;53933;52.142;11.738;2022-08-01T06:13:18;25.60;73.90
67027;DHT22;53933;52.142;11.738;2022-08-01T06:15:47;25.70;73.10
67027;DHT22;53933;52.142;11.738;2022-08-01T06:18:14;25.80;72.70
67027;DHT22;53933;52.142;11.738;2022-08-01T06:20:41;25.80;72.30
67027;DHT22;53933;52.142;11.738;2022-08-01T06:23:08;25.90;72.20
67027;DHT22;53933;52.142;11.738;2022-08-01T06:25:34;25.90;71.70
67027;DHT22;53933;52.142;11.738;2022-08-01T06:28:01;26.00;71.70
67027;DHT22;53933;52.142;11.738;2022-08-01T06:30:28;26.00;71.20
67027;DHT22;53933;52.142;11.738;2022-08-01T06:32:56;26.00;71.40
67027;DHT22;53933;52.142;11.738;2022-08-01T06:35:24;26.00;71.40
67027;DHT22;53933;52.142;11.738;2022-08-01T06:37:51;26.00;71.20
67027;DHT22;53933;52.142;11.738;2022-08-01T06:40:17;26.10;70.70
67027;DHT22;53933;52.142;11.738;2022-08-01T06:42:44;26.30;70.60
67027;DHT22;53933;52.142;11.738;2022-08-01T06:45:12;26.50;69.70
67027;DHT22;53933;52.142;11.738;2022-08-01T06:47:40;26.70;69.00
67027;DHT22;53933;52.142;11.738;2022-08-01T06:50:09;26.80;68.60
67027;DHT22;53933;52.142;11.738;2022-08-01T06:52:36;26.80;67.90
67027;DHT22;53933;52.142;11.738;2022-08-01T06:55:04;26.90;67.80
67027;DHT22;53933;52.142;11.738;2022-08-01T06:57:30;26.90;67.50
67027;DHT22;53933;52.142;11.738;2022-08-01T07:00:01;26.90;67.40
67027;DHT22;53933;52.142;11.738;2022-08-01T07:02:28;26.80;67.70
67027;DHT22;53933;52.142;11.738;2022-08-01T07:04:54;26.80;67.50
67027;DHT22;53933;52.142;11.738;2022-08-01T07:07:26;26.90;67.40
67027;DHT22;53933;52.142;11.738;2022-08-01T07:09:53;27.00;67.30
67027;DHT22;53933;52.142;11.738;2022-08-01T07:12:19;27.10;66.80
67027;DHT22;53933;52.142;11.738;2022-08-01T07:14:46;27.20;66.50
67027;DHT22;53933;52.142;11.738;2022-08-01T07:17:13;27.30;66.20
67027;DHT22;53933;52.142;11.738;2022-08-01T07:19:39;27.30;65.80
67027;DHT22;53933;52.142;11.738;2022-08-01T07:22:06;27.40;65.40
67027;DHT22;53933;52.142;11.738;2022-08-01T07:24:34;27.40;65.20
67027;DHT22;53933;52.142;11.738;2022-08-01T07:27:00;27.40;65.30
67027;DHT22;53933;52.142;11.738;2022-08-01T07:29:27;27.40;65.30
67027;DHT22;53933;52.142;11.738;2022-08-01T07:31:55;27.40;65.20
67027;DHT22;53933;52.142;11.738;2022-08-01T07:34:23;27.40;65.10
67027;DHT22;53933;52.142;11.738;2022-08-01T07:36:50;27.50;64.90
67027;DHT22;53933;52.142;11.738;2022-08-01T07:39:17;27.50;64.80
67027;DHT22;53933;52.142;11.738;2022-08-01T07:41:45;27.60;64.60
67027;DHT22;53933;52.142;11.738;2022-08-01T07:44:12;27.70;64.20
67027;DHT22;53933;52.142;11.738;2022-08-01T07:46:39;27.80;63.90
67027;DHT22;53933;52.142;11.738;2022-08-01T07:49:06;27.90;63.50
67027;DHT22;53933;52.142;11.738;2022-08-01T07:51:32;27.90;63.30
67027;DHT22;53933;52.142;11.738;2022-08-01T07:53:59;27.90;63.30
67027;DHT22;53933;52.142;11.738;2022-08-01T07:56:25;27.90;63.30
67027;DHT22;53933;52.142;11.738;2022-08-01T07:58:53;27.90;63.10
67027;DHT22;53933;52.142;11.738;2022-08-01T08:01:20;27.90;63.10
67027;DHT22;53933;52.142;11.738;2022-08-01T08:03:47;27.80;63.00
67027;DHT22;53933;52.142;11.738;2022-08-01T08:06:13;27.80;63.30
67027;DHT22;53933;52.142;11.738;2022-08-01T08:08:40;27.70;63.40
67027;DHT22;53933;52.142;11.738;2022-08-01T08:11:06;27.60;64.30
67027;DHT22;53933;52.142;11.738;2022-08-01T08:13:33;27.40;65.10
67027;DHT22;53933;52.142;11.738;2022-08-01T08:16:01;27.30;65.80
67027;DHT22;53933;52.142;11.738;2022-08-01T08:18:28;27.30;66.40
67027;DHT22;53933;52.142;11.738;2022-08-01T08:20:54;27.20;66.70
67027;DHT22;53933;52.142;11.738;2022-08-01T08:23:21;27.30;66.40
67027;DHT22;53933;52.142;11.738;2022-08-01T08:26:05;27.40;66.40
67027;DHT22;53933;52.142;11.738;2022-08-01T08:28:31;27.40;65.80
67027;DHT22;53933;52.142;11.738;2022-08-01T08:30:58;27.40;65.20
67027;DHT22;53933;52.142;11.738;2022-08-01T08:33:26;27.30;64.80
67027;DHT22;53933;52.142;11.738;2022-08-01T08:35:52;27.30;64.20
67027;DHT22;53933;52.142;11.738;2022-08-01T08:38:20;27.20;64.30
67027;DHT22;53933;52.142;11.738;2022-08-01T08:40:47;27.20;64.30
67027;DHT22;53933;52.142;11.738;2022-08-01T08:43:15;27.10;64.30
67027;DHT22;53933;52.142;11.738;2022-08-01T08:45:42;27.20;64.40
67027;DHT22;53933;52.142;11.738;2022-08-01T08:48:10;27.20;65.00
67027;DHT22;53933;52.142;11.738;2022-08-01T08:50:40;27.20;64.40
67027;DHT22;53933;52.142;11.738;2022-08-01T08:53:09;27.20;64.30
67027;DHT22;53933;52.142;11.738;2022-08-01T08:55:36;27.20;64.30
67027;DHT22;53933;52.142;11.738;2022-08-01T08:58:03;27.20;64.20
67027;DHT22;53933;52.142;11.738;2022-08-01T09:00:31;27.20;63.10
67027;DHT22;53933;52.142;11.738;2022-08-01T09:02:58;27.20;63.00
67027;DHT22;53933;52.142;11.738;2022-08-01T09:05:24;27.20;63.10
67027;DHT22;53933;52.142;11.738;2022-08-01T09:07:53;27.20;62.70
67027;DHT22;53933;52.142;11.738;2022-08-01T09:10:20;27.20;62.20
67027;DHT22;53933;52.142;11.738;2022-08-01T09:13:04;27.30;62.00
67027;DHT22;53933;52.142;11.738;2022-08-01T09:15:42;27.30;61.40
67027;DHT22;53933;52.142;11.738;2022-08-01T09:18:25;27.40;61.30
67027;DHT22;53933;52.142;11.738;2022-08-01T09:21:07;27.50;61.20
67027;DHT22;53933;52.142;11.738;2022-08-01T09:23:37;27.70;61.00
67027;DHT22;53933;52.142;11.738;2022-08-01T09:26:05;27.70;60.30
67027;DHT22;53933;52.142;11.738;2022-08-01T09:28:32;27.80;60.20
67027;DHT22;53933;52.142;11.738;2022-08-01T09:31:05;27.90;59.90
67027;DHT22;53933;52.142;11.738;2022-08-01T09:33:50;27.90;59.80
67027;DHT22;53933;52.142;11.738;2022-08-01T09:36:18;27.90;59.60
67027;DHT22;53933;52.142;11.738;2022-08-01T09:38:47;27.90;59.10
67027;DHT22;53933;52.142;11.738;2022-08-01T09:41:14;28.00;58.60
67027;DHT22;53933;52.142;11.738;2022-08-01T09:43:47;28.10;58.70
67027;DHT22;53933;52.142;11.738;2022-08-01T09:46:14;28.20;58.40
67027;DHT22;53933;52.142;11.738;2022-08-01T09:48:54;28.30;58.00
67027;DHT22;53933;52.142;11.738;2022-08-01T09:51:28;28.30;57.70
67027;DHT22;53933;52.142;11.738;2022-08-01T09:53:57;28.20;57.50
67027;DHT22;53933;52.142;11.738;2022-08-01T09:56:24;28.20;57.70
67027;DHT22;53933;52.142;11.738;2022-08-01T09:58:53;28.20;57.70
67027;DHT22;53933;52.142;11.738;2022-08-01T10:01:21;28.10;57.70
67027;DHT22;53933;52.142;11.738;2022-08-01T10:04:04;28.00;57.50
67027;DHT22;53933;52.142;11.738;2022-08-01T10:06:31;28.00;57.60
67027;DHT22;53933;52.142;11.738;2022-08-01T10:08:59;28.00;58.60
67027;DHT22;53933;52.142;11.738;2022-08-01T10:11:26;28.00;57.70
67027;DHT22;53933;52.142;11.738;2022-08-01T10:13:55;27.90;57.70
67027;DHT22;53933;52.142;11.738;2022-08-01T10:16:22;27.90;57.90
67027;DHT22;53933;52.142;11.738;2022-08-01T10:18:49;27.90;58.00
67027;DHT22;53933;52.142;11.738;2022-08-01T10:21:16;28.00;58.20
67027;DHT22;53933;52.142;11.738;2022-08-01T10:23:45;28.10;58.00
67027;DHT22;53933;52.142;11.738;2022-08-01T10:26:14;28.10;58.00
67027;DHT22;53933;52.142;11.738;2022-08-01T10:28:41;28.20;58.00
67027;DHT22;53933;52.142;11.738;2022-08-01T10:31:09;28.20;57.90
67027;DHT22;53933;52.142;11.738;2022-08-01T10:33:37;28.30;57.90
67027;DHT22;53933;52.142;11.738;2022-08-01T10:36:05;28.40;59.20
67027;DHT22;53933;52.142;11.738;2022-08-01T10:38:32;28.40;59.10
67027;DHT22;53933;52.142;11.738;2022-08-01T10:41:02;28.40;58.60
67027;DHT22;53933;52.142;11.738;2022-08-01T10:43:30;28.40;58.30
67027;DHT22;53933;52.142;11.738;2022-08-01T10:45:57;28.40;58.10
67027;DHT22;53933;52.142;11.738;2022-08-01T10:48:29;28.40;57.90
67027;DHT22;53933;52.142;11.738;2022-08-01T10:50:58;28.40;57.90
67027;DHT22;53933;52.142;11.738;2022-08-01T10:53:26;28.40;58.00
67027;DHT22;53933;52.142;11.738;2022-08-01T10:55:58;28.40;58.10
67027;DHT22;53933;52.142;11.738;2022-08-01T10:58:26;28.50;57.90
67027;DHT22;53933;52.142;11.738;2022-08-01T11:01:14;28.50;57.70
67027;DHT22;53933;52.142;11.738;2022-08-01T11:03:42;28.50;57.80
67027;DHT22;53933;52.142;11.738;2022-08-01T11:06:16;28.50;57.90
67027;DHT22;53933;52.142;11.738;2022-08-01T11:08:50;28.50;57.90
67027;DHT22;53933;52.142;11.738;2022-08-01T11:11:18;28.40;57.90
67027;DHT22;53933;52.142;11.738;2022-08-01T11:14:01;28.40;58.10
67027;DHT22;53933;52.142;11.738;2022-08-01T11:16:35;28.40;58.20
67027;DHT22;53933;52.142;11.738;2022-08-01T11:19:03;28.30;58.20
67027;DHT22;53933;52.142;11.738;2022-08-01T11:22:00;28.30;58.30
67027;DHT22;53933;52.142;11.738;2022-08-01T11:24:54;28.30;58.30
67027;DHT22;53933;52.142;11.738;2022-08-01T11:27:24;28.30;58.40
67027;DHT22;53933;52.142;11.738;2022-08-01T11:30:21;28.30;58.40
67027;DHT22;53933;52.142;11.738;2022-08-01T11:32:51;28.30;58.30
67027;DHT22;53933;52.142;11.738;2022-08-01T11:35:18;28.30;58.10
67027;DHT22;53933;52.142;11.738;2022-08-01T11:37:46;28.30;57.90
67027;DHT22;53933;52.142;11.738;2022-08-01T11:40:18;28.30;57.90
67027;DHT22;53933;52.142;11.738;2022-08-01T11:42:45;28.30;57.90
67027;DHT22;53933;52.142;11.738;2022-08-01T11:45:11;28.30;57.80
67027;DHT22;53933;52.142;11.738;2022-08-01T11:47:45;28.30;57.80
67027;DHT22;53933;52.142;11.738;2022-08-01T11:50:36;28.30;57.80
67027;DHT22;53933;52.142;11.738;2022-08-01T11:53:05;28.30;57.80
67027;DHT22;53933;52.142;11.738;2022-08-01T11:55:32;28.40;57.90
67027;DHT22;53933;52.142;11.738;2022-08-01T11:58:03;28.40;57.80
67027;DHT22;53933;52.142;11.738;2022-08-01T12:00:31;28.40;57.80
67027;DHT22;53933;52.142;11.738;2022-08-01T12:02:59;28.40;57.90
67027;DHT22;53933;52.142;11.738;2022-08-01T12:05:26;28.40;57.90
67027;DHT22;53933;52.142;11.738;2022-08-01T12:07:57;28.40;57.80
67027;DHT22;53933;52.142;11.738;2022-08-01T12:10:25;28.50;58.00
67027;DHT22;53933;52.142;11.738;2022-08-01T12:12:54;28.40;58.10
67027;DHT22;53933;52.142;11.738;2022-08-01T12:15:23;28.50;58.20
67027;DHT22;53933;52.142;11.738;2022-08-01T12:17:53;28.40;58.20
67027;DHT22;53933;52.142;11.738;2022-08-01T12:20:22;28.40;58.20
67027;DHT22;53933;52.142;11.738;2022-08-01T12:22:54;28.40;58.30
67027;DHT22;53933;52.142;11.738;2022-08-01T12:25:21;28.40;58.40
67027;DHT22;53933;52.142;11.738;2022-08-01T12:27:48;28.40;58.50
67027;DHT22;53933;52.142;11.738;2022-08-01T12:30:17;28.40;58.50
67027;DHT22;53933;52.142;11.738;2022-08-01T12:32:45;28.40;58.50
67027;DHT22;53933;52.142;11.738;2022-08-01T12:35:13;28.40;58.50
67027;DHT22;53933;52.142;11.738;2022-08-01T12:37:42;28.40;58.70
67027;DHT22;53933;52.142;11.738;2022-08-01T12:40:16;28.40;58.80
67027;DHT22;53933;52.142;11.738;2022-08-01T12:42:44;28.40;59.50
67027;DHT22;53933;52.142;11.738;2022-08-01T12:45:13;28.40;58.50
67027;DHT22;53933;52.142;11.738;2022-08-01T12:47:40;28.40;58.90
67027;DHT22;53933;52.142;11.738;2022-08-01T12:50:11;28.40;59.00
67027;DHT22;53933;52.142;11.738;2022-08-01T12:52:39;28.40;59.10
67027;DHT22;53933;52.142;11.738;2022-08-01T12:55:12;28.40;59.10
67027;DHT22;53933;52.142;11.738;2022-08-01T12:57:41;28.30;59.10
67027;DHT22;53933;52.142;11.738;2022-08-01T13:00:21;28.30;59.00
67027;DHT22;53933;52.142;11.738;2022-08-01T13:02:50;28.30;58.90
67027;DHT22;53933;52.142;11.738;2022-08-01T13:05:17;28.40;58.90
67027;DHT22;53933;52.142;11.738;2022-08-01T13:07:47;28.40;59.00
67027;DHT22;53933;52.142;11.738;2022-08-01T13:10:23;28.40;59.10
67027;DHT22;53933;52.142;11.738;2022-08-01T13:12:53;28.50;59.20
67027;DHT22;53933;52.142;11.738;2022-08-01T13:15:23;28.50;59.40
67027;DHT22;53933;52.142;11.738;2022-08-01T13:17:50;28.50;59.60
67027;DHT22;53933;52.142;11.738;2022-08-01T13:20:28;28.50;59.60
67027;DHT22;53933;52.142;11.738;2022-08-01T13:22:55;28.50;59.50
67027;DHT22;53933;52.142;11.738;2022-08-01T13:25:46;28.50;59.50
67027;DHT22;53933;52.142;11.738;2022-08-01T13:28:19;28.50;59.70
67027;DHT22;53933;52.142;11.738;2022-08-01T13:30:59;28.40;59.70
67027;DHT22;53933;52.142;11.738;2022-08-01T13:33:40;28.50;59.30
67027;DHT22;53933;52.142;11.738;2022-08-01T13:36:07;28.40;58.80
67027;DHT22;53933;52.142;11.738;2022-08-01T13:38:34;28.40;58.70
67027;DHT22;53933;52.142;11.738;2022-08-01T13:41:19;28.40;58.60
67027;DHT22;53933;52.142;11.738;2022-08-01T13:43:47;28.40;58.50
67027;DHT22;53933;52.142;11.738;2022-08-01T13:46:13;28.40;58.30
67027;DHT22;53933;52.142;11.738;2022-08-01T13:48:40;28.40;58.20
67027;DHT22;53933;52.142;11.738;2022-08-01T13:51:07;28.40;58.30
67027;DHT22;53933;52.142;11.738;2022-08-01T13:53:33;28.40;58.30
67027;DHT22;53933;52.142;11.738;2022-08-01T13:56:01;28.40;58.30
67027;DHT22;53933;52.142;11.738;2022-08-01T13:58:27;28.50;58.30
67027;DHT22;53933;52.142;11.738;2022-08-01T14:00:55;28.50;58.10
67027;DHT22;53933;52.142;11.738;2022-08-01T14:03:22;28.40;58.00
67027;DHT22;53933;52.142;11.738;2022-08-01T14:05:49;28.50;57.90
67027;DHT22;53933;52.142;11.738;2022-08-01T14:08:16;28.40;57.80
67027;DHT22;53933;52.142;11.738;2022-08-01T14:10:43;28.40;57.80
67027;DHT22;53933;52.142;11.738;2022-08-01T14:13:09;28.50;57.80
67027;DHT22;53933;52.142;11.738;2022-08-01T14:15:36;28.50;57.40
67027;DHT22;53933;52.142;11.738;2022-08-01T14:18:04;28.50;57.40
67027;DHT22;53933;52.142;11.738;2022-08-01T14:20:31;28.50;57.40
67027;DHT22;53933;52.142;11.738;2022-08-01T14:22:58;28.50;57.40
67027;DHT22;53933;52.142;11.738;2022-08-01T14:25:24;28.50;57.40
67027;DHT22;53933;52.142;11.738;2022-08-01T14:27:51;28.50;57.50
67027;DHT22;53933;52.142;11.738;2022-08-01T14:30:18;28.50;57.90
67027;DHT22;53933;52.142;11.738;2022-08-01T14:32:44;28.60;57.40
67027;DHT22;53933;52.142;11.738;2022-08-01T14:35:12;28.50;57.40
67027;DHT22;53933;52.142;11.738;2022-08-01T14:37:39;28.50;57.60
67027;DHT22;53933;52.142;11.738;2022-08-01T14:40:07;28.50;57.70
67027;DHT22;53933;52.142;11.738;2022-08-01T14:42:35;28.50;57.60
67027;DHT22;53933;52.142;11.738;2022-08-01T14:45:03;28.50;57.40
67027;DHT22;53933;52.142;11.738;2022-08-01T14:47:33;28.50;57.20
67027;DHT22;53933;52.142;11.738;2022-08-01T14:50:00;28.50;56.60
67027;DHT22;53933;52.142;11.738;2022-08-01T14:52:28;28.50;56.70
67027;DHT22;53933;52.142;11.738;2022-08-01T14:54:54;28.50;56.90
67027;DHT22;53933;52.142;11.738;2022-08-01T14:57:21;28.40;56.90
67027;DHT22;53933;52.142;11.738;2022-08-01T14:59:48;28.40;56.90
67027;DHT22;53933;52.142;11.738;2022-08-01T15:02:14;28.40;56.90
67027;DHT22;53933;52.142;11.738;2022-08-01T15:04:42;28.40;56.70
67027;DHT22;53933;52.142;11.738;2022-08-01T15:07:09;28.40;56.60
67027;DHT22;53933;52.142;11.738;2022-08-01T15:09:38;28.40;56.30
67027;DHT22;53933;52.142;11.738;2022-08-01T15:12:05;28.40;56.40
67027;DHT22;53933;52.142;11.738;2022-08-01T15:14:32;28.40;56.10
67027;DHT22;53933;52.142;11.738;2022-08-01T15:17:14;28.40;56.00
67027;DHT22;53933;52.142;11.738;2022-08-01T15:19:40;28.30;55.80
67027;DHT22;53933;52.142;11.738;2022-08-01T15:22:07;28.30;55.80
67027;DHT22;53933;52.142;11.738;2022-08-01T15:24:34;28.40;55.90
67027;DHT22;53933;52.142;11.738;2022-08-01T15:27:02;28.30;55.70